sensor_id;sensor_type;location;lat;lon;timestamp;P1;durP1;ratioP1;P2;durP2;ratioP2
20653;SDS011;21083;50.898;4.902;2022-12-18T00:02:04;53.33;;;21.53;;
20653;SDS011;21083;50.898;4.902;2022-12-18T00:04:31;51.50;;;20.83;;
20653;SDS011;21083;50.898;4.902;2022-12-18T00:06:59;55.87;;;20.50;;
20653;SDS011;21083;50.898;4.902;2022-12-18T00:09:26;54.60;;;20.77;;
20653;SDS011;21083;50.898;4.902;2022-12-18T00:11:53;44.73;;;19.07;;
20653;SDS011;21083;50.898;4.902;2022-12-18T00:14:20;49.10;;;20.80;;
20653;SDS011;21083;50.898;4.902;2022-12-18T00:16:47;45.20;;;20.47;;
20653;SDS011;21083;50.898;4.902;2022-12-18T00:19:14;42.60;;;19.53;;
20653;SDS011;21083;50.898;4.902;2022-12-18T00:21:42;45.43;;;19.03;;
20653;SDS011;21083;50.898;4.902;2022-12-18T00:24:11;47.90;;;20.73;;
20653;SDS011;21083;50.898;4.902;2022-12-18T00:26:38;48.77;;;20.57;;
20653;SDS011;21083;50.898;4.902;2022-12-18T00:29:07;46.50;;;20.33;;
20653;SDS011;21083;50.898;4.902;2022-12-18T00:31:38;46.57;;;20.07;;
20653;SDS011;21083;50.898;4.902;2022-12-18T00:34:06;44.50;;;20.97;;
20653;SDS011;21083;50.898;4.902;2022-12-18T00:36:35;45.37;;;20.67;;
20653;SDS011;21083;50.898;4.902;2022-12-18T00:39:03;51.80;;;20.80;;
20653;SDS011;21083;50.898;4.902;2022-12-18T00:41:32;54.97;;;21.27;;
20653;SDS011;21083;50.898;4.902;2022-12-18T00:44:17;49.40;;;20.43;;
20653;SDS011;21083;50.898;4.902;2022-12-18T00:46:44;48.67;;;21.17;;
20653;SDS011;21083;50.898;4.902;2022-12-18T00:49:12;51.93;;;21.07;;
20653;SDS011;21083;50.898;4.902;2022-12-18T00:51:39;49.70;;;21.10;;
20653;SDS011;21083;50.898;4.902;2022-12-18T00:54:06;51.23;;;20.53;;
20653;SDS011;21083;50.898;4.902;2022-12-18T00:56:36;52.90;;;22.53;;
20653;SDS011;21083;50.898;4.902;2022-12-18T00:59:03;45.00;;;19.27;;
20653;SDS011;21083;50.898;4.902;2022-12-18T01:01:30;44.53;;;18.47;;
20653;SDS011;21083;50.898;4.902;2022-12-18T01:03:57;49.63;;;19.07;;
20653;SDS011;21083;50.898;4.902;2022-12-18T01:06:25;47.40;;;19.87;;
20653;SDS011;21083;50.898;4.902;2022-12-18T01:08:52;41.47;;;17.43;;
20653;SDS011;21083;50.898;4.902;2022-12-18T01:11:19;42.95;;;17.52;;
20653;SDS011;21083;50.898;4.902;2022-12-18T01:13:48;44.80;;;19.23;;
20653;SDS011;21083;50.898;4.902;2022-12-18T01:16:16;43.53;;;17.57;;
20653;SDS011;21083;50.898;4.902;2022-12-18T01:18:43;45.33;;;18.90;;
20653;SDS011;21083;50.898;4.902;2022-12-18T01:21:11;43.30;;;18.33;;
20653;SDS011;21083;50.898;4.902;2022-12-18T01:23:39;47.43;;;19.73;;
20653;SDS011;21083;50.898;4.902;2022-12-18T01:26:07;48.53;;;19.57;;
20653;SDS011;21083;50.898;4.902;2022-12-18T01:28:35;48.00;;;19.73;;
20653;SDS011;21083;50.898;4.902;2022-12-18T01:31:16;39.77;;;17.03;;
20653;SDS011;21083;50.898;4.902;2022-12-18T01:33:45;43.20;;;17.90;;
20653;SDS011;21083;50.898;4.902;2022-12-18T01:36:15;42.40;;;17.33;;
20653;SDS011;21083;50.898;4.902;2022-12-18T01:38:44;43.77;;;17.47;;
20653;SDS011;21083;50.898;4.902;2022-12-18T01:41:12;43.07;;;19.17;;
20653;SDS011;21083;50.898;4.902;2022-12-18T01:43:48;41.77;;;17.93;;
20653;SDS011;21083;50.898;4.902;2022-12-18T01:46:19;45.20;;;17.63;;
20653;SDS011;21083;50.898;4.902;2022-12-18T01:48:51;43.13;;;17.57;;
20653;SDS011;21083;50.898;4.902;2022-12-18T01:51:21;45.73;;;18.50;;
20653;SDS011;21083;50.898;4.902;2022-12-18T01:53:49;44.10;;;19.03;;
20653;SDS011;21083;50.898;4.902;2022-12-18T01:56:16;45.90;;;19.23;;
20653;SDS011;21083;50.898;4.902;2022-12-18T01:58:52;45.93;;;19.03;;
20653;SDS011;21083;50.898;4.902;2022-12-18T02:01:26;42.70;;;17.77;;
20653;SDS011;21083;50.898;4.902;2022-12-18T02:03:53;39.13;;;17.03;;
20653;SDS011;21083;50.898;4.902;2022-12-18T02:06:20;44.23;;;17.60;;
20653;SDS011;21083;50.898;4.902;2022-12-18T02:08:56;42.43;;;17.63;;
20653;SDS011;21083;50.898;4.902;2022-12-18T02:11:38;40.13;;;17.50;;
20653;SDS011;21083;50.898;4.902;2022-12-18T02:14:13;46.90;;;18.33;;
20653;SDS011;21083;50.898;4.902;2022-12-18T02:16:50;41.30;;;18.93;;
20653;SDS011;21083;50.898;4.902;2022-12-18T02:19:34;41.07;;;17.70;;
20653;SDS011;21083;50.898;4.902;2022-12-18T02:22:13;47.10;;;18.90;;
20653;SDS011;21083;50.898;4.902;2022-12-18T02:24:52;48.63;;;20.23;;
20653;SDS011;21083;50.898;4.902;2022-12-18T02:27:27;42.33;;;17.97;;
20653;SDS011;21083;50.898;4.902;2022-12-18T02:29:55;48.17;;;18.73;;
20653;SDS011;21083;50.898;4.902;2022-12-18T02:32:26;49.23;;;18.93;;
20653;SDS011;21083;50.898;4.902;2022-12-18T02:34:56;50.27;;;19.10;;
20653;SDS011;21083;50.898;4.902;2022-12-18T02:37:24;42.70;;;18.20;;
20653;SDS011;21083;50.898;4.902;2022-12-18T02:39:54;40.40;;;18.57;;
20653;SDS011;21083;50.898;4.902;2022-12-18T02:42:22;45.57;;;18.20;;
20653;SDS011;21083;50.898;4.902;2022-12-18T02:44:52;46.70;;;17.57;;
20653;SDS011;21083;50.898;4.902;2022-12-18T02:47:22;42.37;;;18.77;;
20653;SDS011;21083;50.898;4.902;2022-12-18T02:49:53;44.20;;;17.23;;
20653;SDS011;21083;50.898;4.902;2022-12-18T02:52:30;41.83;;;17.33;;
20653;SDS011;21083;50.898;4.902;2022-12-18T02:55:05;41.77;;;17.13;;
20653;SDS011;21083;50.898;4.902;2022-12-18T02:57:40;38.20;;;15.63;;
20653;SDS011;21083;50.898;4.902;2022-12-18T03:00:14;38.30;;;16.20;;
20653;SDS011;21083;50.898;4.902;2022-12-18T03:02:44;38.37;;;15.80;;
20653;SDS011;21083;50.898;4.902;2022-12-18T03:05:19;40.87;;;15.97;;
20653;SDS011;21083;50.898;4.902;2022-12-18T03:07:49;42.83;;;15.60;;
20653;SDS011;21083;50.898;4.902;2022-12-18T03:10:21;36.10;;;15.50;;
20653;SDS011;21083;50.898;4.902;2022-12-18T03:12:53;36.33;;;14.93;;
20653;SDS011;21083;50.898;4.902;2022-12-18T03:15:27;34.50;;;14.77;;
20653;SDS011;21083;50.898;4.902;2022-12-18T03:17:57;39.90;;;14.97;;
20653;SDS011;21083;50.898;4.902;2022-12-18T03:20:28;36.43;;;14.93;;
20653;SDS011;21083;50.898;4.902;2022-12-18T03:22:59;40.67;;;15.23;;
20653;SDS011;21083;50.898;4.902;2022-12-18T03:25:28;40.13;;;15.73;;
20653;SDS011;21083;50.898;4.902;2022-12-18T03:27:58;38.00;;;16.47;;
20653;SDS011;21083;50.898;4.902;2022-12-18T03:30:30;43.10;;;15.90;;
20653;SDS011;21083;50.898;4.902;2022-12-18T03:33:02;38.30;;;15.33;;
20653;SDS011;21083;50.898;4.902;2022-12-18T03:35:35;35.07;;;15.07;;
20653;SDS011;21083;50.898;4.902;2022-12-18T03:38:05;38.60;;;15.17;;
20653;SDS011;21083;50.898;4.902;2022-12-18T03:40:35;38.80;;;15.07;;
20653;SDS011;21083;50.898;4.902;2022-12-18T03:43:11;39.73;;;16.27;;
20653;SDS011;21083;50.898;4.902;2022-12-18T03:45:50;37.07;;;16.03;;
20653;SDS011;21083;50.898;4.902;2022-12-18T03:48:21;41.50;;;16.70;;
20653;SDS011;21083;50.898;4.902;2022-12-18T03:50:56;37.37;;;15.07;;
20653;SDS011;21083;50.898;4.902;2022-12-18T03:53:27;39.10;;;14.90;;
20653;SDS011;21083;50.898;4.902;2022-12-18T03:56:00;35.40;;;15.07;;
20653;SDS011;21083;50.898;4.902;2022-12-18T03:58:29;37.93;;;15.70;;
20653;SDS011;21083;50.898;4.902;2022-12-18T04:01:00;38.47;;;14.37;;
20653;SDS011;21083;50.898;4.902;2022-12-18T04:03:29;43.27;;;16.37;;
20653;SDS011;21083;50.898;4.902;2022-12-18T04:05:58;38.97;;;16.10;;
20653;SDS011;21083;50.898;4.902;2022-12-18T04:08:26;45.27;;;17.00;;
20653;SDS011;21083;50.898;4.902;2022-12-18T04:10:54;42.43;;;16.33;;
20653;SDS011;21083;50.898;4.902;2022-12-18T04:13:23;40.23;;;16.90;;
20653;SDS011;21083;50.898;4.902;2022-12-18T04:15:53;42.93;;;16.87;;
20653;SDS011;21083;50.898;4.902;2022-12-18T04:18:21;42.40;;;17.07;;
20653;SDS011;21083;50.898;4.902;2022-12-18T04:20:48;45.20;;;18.77;;
20653;SDS011;21083;50.898;4.902;2022-12-18T04:23:15;44.00;;;16.90;;
20653;SDS011;21083;50.898;4.902;2022-12-18T04:25:42;41.83;;;17.37;;
20653;SDS011;21083;50.898;4.902;2022-12-18T04:28:09;46.77;;;17.60;;
20653;SDS011;21083;50.898;4.902;2022-12-18T04:30:36;45.17;;;17.90;;
20653;SDS011;21083;50.898;4.902;2022-12-18T04:33:03;43.37;;;16.33;;
20653;SDS011;21083;50.898;4.902;2022-12-18T04:35:31;40.87;;;17.67;;
20653;SDS011;21083;50.898;4.902;2022-12-18T04:37:58;43.60;;;17.33;;
20653;SDS011;21083;50.898;4.902;2022-12-18T04:40:25;48.90;;;18.63;;
20653;SDS011;21083;50.898;4.902;2022-12-18T04:42:52;48.60;;;17.87;;
20653;SDS011;21083;50.898;4.902;2022-12-18T04:45:19;49.10;;;18.37;;
20653;SDS011;21083;50.898;4.902;2022-12-18T04:47:45;50.47;;;20.37;;
20653;SDS011;21083;50.898;4.902;2022-12-18T04:50:12;44.03;;;18.40;;
20653;SDS011;21083;50.898;4.902;2022-12-18T04:52:40;47.97;;;18.50;;
20653;SDS011;21083;50.898;4.902;2022-12-18T04:55:07;41.33;;;17.73;;
20653;SDS011;21083;50.898;4.902;2022-12-18T04:57:35;37.80;;;17.13;;
20653;SDS011;21083;50.898;4.902;2022-12-18T05:00:02;48.73;;;18.10;;
20653;SDS011;21083;50.898;4.902;2022-12-18T05:02:31;54.27;;;18.33;;
20653;SDS011;21083;50.898;4.902;2022-12-18T05:04:58;46.90;;;17.83;;
20653;SDS011;21083;50.898;4.902;2022-12-18T05:07:24;40.83;;;17.13;;
20653;SDS011;21083;50.898;4.902;2022-12-18T05:09:53;44.07;;;18.27;;
20653;SDS011;21083;50.898;4.902;2022-12-18T05:12:19;42.47;;;15.07;;
20653;SDS011;21083;50.898;4.902;2022-12-18T05:14:46;44.23;;;16.90;;
20653;SDS011;21083;50.898;4.902;2022-12-18T05:17:13;41.77;;;15.80;;
20653;SDS011;21083;50.898;4.902;2022-12-18T05:19:40;42.67;;;15.40;;
20653;SDS011;21083;50.898;4.902;2022-12-18T05:22:07;39.70;;;14.83;;
20653;SDS011;21083;50.898;4.902;2022-12-18T05:24:34;42.90;;;15.97;;
20653;SDS011;21083;50.898;4.902;2022-12-18T05:27:04;42.10;;;16.73;;
20653;SDS011;21083;50.898;4.902;2022-12-18T05:29:31;38.00;;;15.53;;
20653;SDS011;21083;50.898;4.902;2022-12-18T05:31:58;38.57;;;15.60;;
20653;SDS011;21083;50.898;4.902;2022-12-18T05:34:24;42.47;;;15.13;;
20653;SDS011;21083;50.898;4.902;2022-12-18T05:36:51;39.47;;;15.13;;
20653;SDS011;21083;50.898;4.902;2022-12-18T05:39:18;31.80;;;14.33;;
20653;SDS011;21083;50.898;4.902;2022-12-18T05:41:45;40.30;;;15.33;;
20653;SDS011;21083;50.898;4.902;2022-12-18T05:44:13;38.30;;;16.53;;
20653;SDS011;21083;50.898;4.902;2022-12-18T05:46:40;41.07;;;15.90;;
20653;SDS011;21083;50.898;4.902;2022-12-18T05:49:07;40.43;;;15.57;;
20653;SDS011;21083;50.898;4.902;2022-12-18T05:51:34;40.20;;;15.77;;
20653;SDS011;21083;50.898;4.902;2022-12-18T05:54:01;39.47;;;15.67;;
20653;SDS011;21083;50.898;4.902;2022-12-18T05:56:28;37.77;;;16.07;;
20653;SDS011;21083;50.898;4.902;2022-12-18T05:58:55;46.00;;;15.63;;
20653;SDS011;21083;50.898;4.902;2022-12-18T06:01:23;40.53;;;15.47;;
20653;SDS011;21083;50.898;4.902;2022-12-18T06:03:52;31.63;;;14.97;;
20653;SDS011;21083;50.898;4.902;2022-12-18T06:06:20;34.67;;;14.93;;
20653;SDS011;21083;50.898;4.902;2022-12-18T06:08:48;37.83;;;15.97;;
20653;SDS011;21083;50.898;4.902;2022-12-18T06:11:16;41.70;;;15.90;;
20653;SDS011;21083;50.898;4.902;2022-12-18T06:13:44;40.20;;;16.00;;
20653;SDS011;21083;50.898;4.902;2022-12-18T06:16:11;40.97;;;14.90;;
20653;SDS011;21083;50.898;4.902;2022-12-18T06:18:40;32.27;;;14.43;;
20653;SDS011;21083;50.898;4.902;2022-12-18T06:21:06;39.50;;;16.33;;
20653;SDS011;21083;50.898;4.902;2022-12-18T06:23:33;36.23;;;13.97;;
20653;SDS011;21083;50.898;4.902;2022-12-18T06:26:03;34.10;;;15.73;;
20653;SDS011;21083;50.898;4.902;2022-12-18T06:28:30;41.63;;;15.87;;
20653;SDS011;21083;50.898;4.902;2022-12-18T06:30:57;37.33;;;15.97;;
20653;SDS011;21083;50.898;4.902;2022-12-18T06:33:25;40.97;;;16.67;;
20653;SDS011;21083;50.898;4.902;2022-12-18T06:35:54;36.93;;;15.50;;
20653;SDS011;21083;50.898;4.902;2022-12-18T06:38:25;37.57;;;15.67;;
20653;SDS011;21083;50.898;4.902;2022-12-18T06:40:52;40.33;;;16.03;;
20653;SDS011;21083;50.898;4.902;2022-12-18T06:43:19;40.77;;;17.33;;
20653;SDS011;21083;50.898;4.902;2022-12-18T06:45:46;37.80;;;15.60;;
20653;SDS011;21083;50.898;4.902;2022-12-18T06:48:17;32.57;;;14.77;;
20653;SDS011;21083;50.898;4.902;2022-12-18T06:50:44;37.47;;;15.63;;
20653;SDS011;21083;50.898;4.902;2022-12-18T06:53:12;41.63;;;17.00;;
20653;SDS011;21083;50.898;4.902;2022-12-18T06:55:39;34.83;;;16.17;;
20653;SDS011;21083;50.898;4.902;2022-12-18T06:58:07;36.33;;;15.10;;
20653;SDS011;21083;50.898;4.902;2022-12-18T07:00:33;37.30;;;15.47;;
20653;SDS011;21083;50.898;4.902;2022-12-18T07:03:00;40.03;;;15.70;;
20653;SDS011;21083;50.898;4.902;2022-12-18T07:05:27;35.13;;;15.70;;
20653;SDS011;21083;50.898;4.902;2022-12-18T07:07:54;35.00;;;14.50;;
20653;SDS011;21083;50.898;4.902;2022-12-18T07:10:22;37.20;;;15.73;;
20653;SDS011;21083;50.898;4.902;2022-12-18T07:12:49;34.27;;;15.40;;
20653;SDS011;21083;50.898;4.902;2022-12-18T07:15:16;39.03;;;15.40;;
20653;SDS011;21083;50.898;4.902;2022-12-18T07:17:43;39.13;;;15.87;;
20653;SDS011;21083;50.898;4.902;2022-12-18T07:20:10;32.30;;;14.13;;
20653;SDS011;21083;50.898;4.902;2022-12-18T07:22:37;38.43;;;16.47;;
20653;SDS011;21083;50.898;4.902;2022-12-18T07:25:05;36.70;;;14.80;;
20653;SDS011;21083;50.898;4.902;2022-12-18T07:27:34;39.43;;;16.30;;
20653;SDS011;21083;50.898;4.902;2022-12-18T07:30:01;41.20;;;15.77;;
20653;SDS011;21083;50.898;4.902;2022-12-18T07:32:29;36.10;;;16.10;;
20653;SDS011;21083;50.898;4.902;2022-12-18T07:34:56;36.80;;;15.53;;
20653;SDS011;21083;50.898;4.902;2022-12-18T07:37:23;46.13;;;18.17;;
20653;SDS011;21083;50.898;4.902;2022-12-18T07:39:50;51.13;;;18.37;;
20653;SDS011;21083;50.898;4.902;2022-12-18T07:42:17;44.10;;;17.53;;
20653;SDS011;21083;50.898;4.902;2022-12-18T07:45:01;36.80;;;15.63;;
20653;SDS011;21083;50.898;4.902;2022-12-18T07:47:29;35.87;;;14.03;;
20653;SDS011;21083;50.898;4.902;2022-12-18T07:49:56;35.27;;;15.13;;
20653;SDS011;21083;50.898;4.902;2022-12-18T07:52:23;35.27;;;14.70;;
20653;SDS011;21083;50.898;4.902;2022-12-18T07:54:50;31.73;;;14.50;;
20653;SDS011;21083;50.898;4.902;2022-12-18T07:57:17;32.47;;;13.90;;
20653;SDS011;21083;50.898;4.902;2022-12-18T07:59:43;35.60;;;15.83;;
20653;SDS011;21083;50.898;4.902;2022-12-18T08:02:12;32.47;;;15.27;;
20653;SDS011;21083;50.898;4.902;2022-12-18T08:04:39;32.13;;;13.27;;
20653;SDS011;21083;50.898;4.902;2022-12-18T08:07:06;30.33;;;14.53;;
20653;SDS011;21083;50.898;4.902;2022-12-18T08:09:33;34.83;;;14.13;;
20653;SDS011;21083;50.898;4.902;2022-12-18T08:12:00;33.80;;;13.87;;
20653;SDS011;21083;50.898;4.902;2022-12-18T08:14:27;31.03;;;13.87;;
20653;SDS011;21083;50.898;4.902;2022-12-18T08:16:53;33.83;;;13.67;;
20653;SDS011;21083;50.898;4.902;2022-12-18T08:19:22;31.97;;;14.07;;
20653;SDS011;21083;50.898;4.902;2022-12-18T08:21:49;36.43;;;14.13;;
20653;SDS011;21083;50.898;4.902;2022-12-18T08:24:16;31.17;;;12.87;;
20653;SDS011;21083;50.898;4.902;2022-12-18T08:26:43;28.63;;;12.73;;
20653;SDS011;21083;50.898;4.902;2022-12-18T08:29:10;33.97;;;13.53;;
20653;SDS011;21083;50.898;4.902;2022-12-18T08:31:37;32.53;;;13.50;;
20653;SDS011;21083;50.898;4.902;2022-12-18T08:34:04;29.40;;;13.37;;
20653;SDS011;21083;50.898;4.902;2022-12-18T08:36:33;37.97;;;13.97;;
20653;SDS011;21083;50.898;4.902;2022-12-18T08:38:59;30.77;;;11.90;;
20653;SDS011;21083;50.898;4.902;2022-12-18T08:41:26;27.20;;;11.83;;
20653;SDS011;21083;50.898;4.902;2022-12-18T08:43:53;29.63;;;11.37;;
20653;SDS011;21083;50.898;4.902;2022-12-18T08:46:38;22.77;;;10.07;;
20653;SDS011;21083;50.898;4.902;2022-12-18T08:49:07;25.33;;;11.20;;
20653;SDS011;21083;50.898;4.902;2022-12-18T08:51:36;25.07;;;10.70;;
20653;SDS011;21083;50.898;4.902;2022-12-18T08:54:04;29.20;;;12.03;;
20653;SDS011;21083;50.898;4.902;2022-12-18T08:56:32;25.03;;;10.87;;
20653;SDS011;21083;50.898;4.902;2022-12-18T08:58:59;23.27;;;9.77;;
20653;SDS011;21083;50.898;4.902;2022-12-18T09:01:26;25.67;;;10.97;;
20653;SDS011;21083;50.898;4.902;2022-12-18T09:03:53;27.10;;;10.47;;
20653;SDS011;21083;50.898;4.902;2022-12-18T09:06:20;26.70;;;11.17;;
20653;SDS011;21083;50.898;4.902;2022-12-18T09:08:50;31.43;;;11.20;;
20653;SDS011;21083;50.898;4.902;2022-12-18T09:11:19;25.10;;;10.80;;
20653;SDS011;21083;50.898;4.902;2022-12-18T09:13:47;28.87;;;11.07;;
20653;SDS011;21083;50.898;4.902;2022-12-18T09:16:15;20.90;;;10.43;;
20653;SDS011;21083;50.898;4.902;2022-12-18T09:18:42;25.50;;;9.93;;
20653;SDS011;21083;50.898;4.902;2022-12-18T09:21:10;25.17;;;11.20;;
20653;SDS011;21083;50.898;4.902;2022-12-18T09:23:38;28.00;;;11.93;;
20653;SDS011;21083;50.898;4.902;2022-12-18T09:26:07;30.03;;;10.90;;
20653;SDS011;21083;50.898;4.902;2022-12-18T09:28:34;22.73;;;9.43;;
20653;SDS011;21083;50.898;4.902;2022-12-18T09:31:03;23.67;;;11.03;;
20653;SDS011;21083;50.898;4.902;2022-12-18T09:33:32;28.67;;;10.70;;
20653;SDS011;21083;50.898;4.902;2022-12-18T09:36:00;20.17;;;9.70;;
20653;SDS011;21083;50.898;4.902;2022-12-18T09:38:29;23.47;;;10.57;;
20653;SDS011;21083;50.898;4.902;2022-12-18T09:40:57;29.60;;;9.80;;
20653;SDS011;21083;50.898;4.902;2022-12-18T09:43:29;30.20;;;11.77;;
20653;SDS011;21083;50.898;4.902;2022-12-18T09:46:03;23.60;;;9.63;;
20653;SDS011;21083;50.898;4.902;2022-12-18T09:48:34;26.07;;;10.57;;
20653;SDS011;21083;50.898;4.902;2022-12-18T09:51:04;24.30;;;10.90;;
20653;SDS011;21083;50.898;4.902;2022-12-18T09:53:38;24.02;;;10.82;;
20653;SDS011;21083;50.898;4.902;2022-12-18T09:56:10;23.50;;;10.17;;
20653;SDS011;21083;50.898;4.902;2022-12-18T09:58:44;23.83;;;9.83;;
20653;SDS011;21083;50.898;4.902;2022-12-18T10:01:15;26.97;;;10.57;;
20653;SDS011;21083;50.898;4.902;2022-12-18T10:03:46;22.40;;;9.77;;
20653;SDS011;21083;50.898;4.902;2022-12-18T10:06:13;33.40;;;13.93;;
20653;SDS011;21083;50.898;4.902;2022-12-18T10:08:45;41.03;;;18.90;;
20653;SDS011;21083;50.898;4.902;2022-12-18T10:11:22;31.05;;;15.10;;
20653;SDS011;21083;50.898;4.902;2022-12-18T10:14:06;51.93;;;24.10;;
20653;SDS011;21083;50.898;4.902;2022-12-18T10:16:43;34.20;;;17.42;;
20653;SDS011;21083;50.898;4.902;2022-12-18T10:19:21;29.45;;;13.43;;
20653;SDS011;21083;50.898;4.902;2022-12-18T10:21:57;31.27;;;16.10;;
20653;SDS011;21083;50.898;4.902;2022-12-18T10:24:35;29.97;;;16.50;;
20653;SDS011;21083;50.898;4.902;2022-12-18T10:27:11;33.33;;;17.53;;
20653;SDS011;21083;50.898;4.902;2022-12-18T10:29:42;28.55;;;13.43;;
20653;SDS011;21083;50.898;4.902;2022-12-18T10:32:13;28.93;;;14.73;;
20653;SDS011;21083;50.898;4.902;2022-12-18T10:34:44;26.63;;;12.15;;
20653;SDS011;21083;50.898;4.902;2022-12-18T10:37:14;25.27;;;11.10;;
20653;SDS011;21083;50.898;4.902;2022-12-18T10:39:44;28.80;;;11.00;;
20653;SDS011;21083;50.898;4.902;2022-12-18T10:42:16;30.13;;;15.37;;
20653;SDS011;21083;50.898;4.902;2022-12-18T10:44:45;32.50;;;17.37;;
20653;SDS011;21083;50.898;4.902;2022-12-18T10:47:26;24.37;;;11.90;;
20653;SDS011;21083;50.898;4.902;2022-12-18T10:49:53;27.77;;;14.23;;
20653;SDS011;21083;50.898;4.902;2022-12-18T10:52:21;30.60;;;15.10;;
20653;SDS011;21083;50.898;4.902;2022-12-18T10:54:51;29.47;;;16.33;;
20653;SDS011;21083;50.898;4.902;2022-12-18T10:57:32;30.17;;;14.00;;
20653;SDS011;21083;50.898;4.902;2022-12-18T11:02:52;27.83;;;12.83;;
20653;SDS011;21083;50.898;4.902;2022-12-18T11:05:24;25.97;;;12.53;;
20653;SDS011;21083;50.898;4.902;2022-12-18T11:07:53;27.23;;;12.53;;
20653;SDS011;21083;50.898;4.902;2022-12-18T11:10:25;30.13;;;12.27;;
20653;SDS011;21083;50.898;4.902;2022-12-18T11:12:54;26.37;;;12.13;;
20653;SDS011;21083;50.898;4.902;2022-12-18T11:15:23;24.90;;;12.20;;
20653;SDS011;21083;50.898;4.902;2022-12-18T11:17:56;27.17;;;14.10;;
20653;SDS011;21083;50.898;4.902;2022-12-18T11:20:26;28.97;;;12.83;;
20653;SDS011;21083;50.898;4.902;2022-12-18T11:22:58;28.27;;;12.37;;
20653;SDS011;21083;50.898;4.902;2022-12-18T11:25:26;23.63;;;11.30;;
20653;SDS011;21083;50.898;4.902;2022-12-18T11:27:54;26.55;;;12.18;;
20653;SDS011;21083;50.898;4.902;2022-12-18T11:30:25;28.33;;;12.00;;
20653;SDS011;21083;50.898;4.902;2022-12-18T11:32:59;26.67;;;12.03;;
20653;SDS011;21083;50.898;4.902;2022-12-18T11:35:38;26.50;;;11.50;;
20653;SDS011;21083;50.898;4.902;2022-12-18T11:38:12;40.08;;;18.08;;
20653;SDS011;21083;50.898;4.902;2022-12-18T11:40:45;55.67;;;25.98;;
20653;SDS011;21083;50.898;4.902;2022-12-18T11:43:20;45.27;;;25.30;;
20653;SDS011;21083;50.898;4.902;2022-12-18T11:45:54;33.22;;;16.85;;
20653;SDS011;21083;50.898;4.902;2022-12-18T11:48:27;31.92;;;14.98;;
20653;SDS011;21083;50.898;4.902;2022-12-18T11:50:57;31.60;;;14.73;;
20653;SDS011;21083;50.898;4.902;2022-12-18T11:53:25;26.37;;;12.80;;
20653;SDS011;21083;50.898;4.902;2022-12-18T11:55:56;28.53;;;12.57;;
20653;SDS011;21083;50.898;4.902;2022-12-18T12:01:25;32.93;;;16.60;;
20653;SDS011;21083;50.898;4.902;2022-12-18T12:07:09;34.47;;;15.60;;
20653;SDS011;21083;50.898;4.902;2022-12-18T12:09:44;28.87;;;12.97;;
20653;SDS011;21083;50.898;4.902;2022-12-18T12:12:22;27.23;;;12.53;;
20653;SDS011;21083;50.898;4.902;2022-12-18T12:15:12;26.35;;;12.30;;
20653;SDS011;21083;50.898;4.902;2022-12-18T12:17:55;29.90;;;12.55;;
20653;SDS011;21083;50.898;4.902;2022-12-18T12:20:32;30.90;;;13.87;;
20653;SDS011;21083;50.898;4.902;2022-12-18T12:23:12;31.57;;;13.73;;
20653;SDS011;21083;50.898;4.902;2022-12-18T12:25:44;28.33;;;12.77;;
20653;SDS011;21083;50.898;4.902;2022-12-18T12:28:17;29.92;;;14.93;;
20653;SDS011;21083;50.898;4.902;2022-12-18T12:31:02;28.00;;;13.27;;
20653;SDS011;21083;50.898;4.902;2022-12-18T12:33:38;29.50;;;12.83;;
20653;SDS011;21083;50.898;4.902;2022-12-18T12:36:14;32.17;;;14.13;;
20653;SDS011;21083;50.898;4.902;2022-12-18T12:38:47;27.63;;;12.52;;
20653;SDS011;21083;50.898;4.902;2022-12-18T12:41:18;31.52;;;14.15;;
20653;SDS011;21083;50.898;4.902;2022-12-18T12:44:06;29.98;;;13.35;;
20653;SDS011;21083;50.898;4.902;2022-12-18T12:46:39;28.98;;;12.60;;
20653;SDS011;21083;50.898;4.902;2022-12-18T12:49:11;30.63;;;12.93;;
20653;SDS011;21083;50.898;4.902;2022-12-18T12:51:41;29.13;;;12.60;;
20653;SDS011;21083;50.898;4.902;2022-12-18T12:54:12;29.95;;;14.25;;
20653;SDS011;21083;50.898;4.902;2022-12-18T12:56:50;27.80;;;13.23;;
20653;SDS011;21083;50.898;4.902;2022-12-18T12:59:24;32.40;;;13.98;;
20653;SDS011;21083;50.898;4.902;2022-12-18T13:01:57;30.75;;;14.13;;
20653;SDS011;21083;50.898;4.902;2022-12-18T13:04:32;30.60;;;14.40;;
20653;SDS011;21083;50.898;4.902;2022-12-18T13:07:04;34.38;;;14.80;;
20653;SDS011;21083;50.898;4.902;2022-12-18T13:10:10;37.42;;;16.30;;
20653;SDS011;21083;50.898;4.902;2022-12-18T13:12:55;35.33;;;15.85;;
20653;SDS011;21083;50.898;4.902;2022-12-18T13:15:23;47.60;;;22.60;;
20653;SDS011;21083;50.898;4.902;2022-12-18T13:20:44;35.15;;;17.40;;
20653;SDS011;21083;50.898;4.902;2022-12-18T13:23:29;28.77;;;14.00;;
20653;SDS011;21083;50.898;4.902;2022-12-18T13:28:59;33.33;;;15.10;;
20653;SDS011;21083;50.898;4.902;2022-12-18T13:34:32;31.70;;;13.88;;
20653;SDS011;21083;50.898;4.902;2022-12-18T13:43:15;27.35;;;13.90;;
20653;SDS011;21083;50.898;4.902;2022-12-18T13:45:49;31.33;;;15.98;;
20653;SDS011;21083;50.898;4.902;2022-12-18T13:48:27;33.83;;;14.85;;
20653;SDS011;21083;50.898;4.902;2022-12-18T13:50:58;43.78;;;17.90;;
20653;SDS011;21083;50.898;4.902;2022-12-18T13:53:30;54.80;;;23.88;;
20653;SDS011;21083;50.898;4.902;2022-12-18T13:56:00;50.08;;;21.02;;
20653;SDS011;21083;50.898;4.902;2022-12-18T13:58:29;37.25;;;17.80;;
20653;SDS011;21083;50.898;4.902;2022-12-18T14:00:56;30.45;;;14.57;;
20653;SDS011;21083;50.898;4.902;2022-12-18T14:03:25;34.05;;;15.65;;
20653;SDS011;21083;50.898;4.902;2022-12-18T14:05:55;33.53;;;16.35;;
20653;SDS011;21083;50.898;4.902;2022-12-18T14:08:25;31.63;;;13.82;;
20653;SDS011;21083;50.898;4.902;2022-12-18T14:10:58;32.38;;;14.80;;
20653;SDS011;21083;50.898;4.902;2022-12-18T14:13:27;34.28;;;15.15;;
20653;SDS011;21083;50.898;4.902;2022-12-18T14:16:00;32.60;;;15.02;;
20653;SDS011;21083;50.898;4.902;2022-12-18T14:18:29;32.10;;;13.60;;
20653;SDS011;21083;50.898;4.902;2022-12-18T14:21:04;29.52;;;13.38;;
20653;SDS011;21083;50.898;4.902;2022-12-18T14:23:33;29.70;;;13.48;;
20653;SDS011;21083;50.898;4.902;2022-12-18T14:26:01;30.08;;;13.63;;
20653;SDS011;21083;50.898;4.902;2022-12-18T14:28:46;28.30;;;13.35;;
20653;SDS011;21083;50.898;4.902;2022-12-18T14:31:16;41.10;;;14.98;;
20653;SDS011;21083;50.898;4.902;2022-12-18T14:33:45;32.03;;;14.55;;
20653;SDS011;21083;50.898;4.902;2022-12-18T14:36:13;32.42;;;14.38;;
20653;SDS011;21083;50.898;4.902;2022-12-18T14:38:42;35.47;;;15.65;;
20653;SDS011;21083;50.898;4.902;2022-12-18T14:41:10;37.28;;;15.40;;
20653;SDS011;21083;50.898;4.902;2022-12-18T14:43:39;39.78;;;15.13;;
20653;SDS011;21083;50.898;4.902;2022-12-18T14:49:00;32.45;;;14.20;;
20653;SDS011;21083;50.898;4.902;2022-12-18T14:51:29;36.38;;;14.77;;
20653;SDS011;21083;50.898;4.902;2022-12-18T14:53:57;39.50;;;16.63;;
20653;SDS011;21083;50.898;4.902;2022-12-18T14:56:27;38.28;;;16.17;;
20653;SDS011;21083;50.898;4.902;2022-12-18T14:58:56;37.88;;;16.23;;
20653;SDS011;21083;50.898;4.902;2022-12-18T15:01:25;38.58;;;17.30;;
20653;SDS011;21083;50.898;4.902;2022-12-18T15:03:56;32.92;;;14.60;;
20653;SDS011;21083;50.898;4.902;2022-12-18T15:06:28;35.08;;;15.40;;